Aviation Digital Data Service (ADDS)

Output produced by METARs form (2210 UTC 24 March 2019)
found at http://www.aviationweather.gov/metar/data/
 
UATE 242200Z 34006MPS 9999 -SHRA BKN030CB OVC043 06/03 Q1015 R30/0///70 NOSIG RMK QFE760/1013
TAF UATE 241709Z 2418/2518 32006MPS 3100 BR BKN004 BKN015CB TX10/2510Z
TN04/2502Z 
     TEMPO 2418/2422 0500 FG VV001 
     TEMPO 2422/2507 35008G14MPS -SHRA
       
UATT 242200Z 15006MPS 9999 SCT048 06/04 Q1012 R13/29//50 NOSIG RMK QFE739/0986
TAF UATT 241700Z 2418/2518 15006MPS 9999 BKN011 TX06/2418Z TN00/2515Z 
     TEMPO 2418/2503 3100 -RA BR OVC011 
     FM250300 18007MPS 3100 -SHSNRA BR BKN011CB 
     TEMPO 2503/2515 24011MPS
       
UAAA 242200Z 01002MPS 340V040 2200 BR SCT100 03/02 Q1020 R23R/1///60 R23L/2/0150 NOSIG
TAF UAAA 241700Z 2418/2518 22005MPS 1500 -SHRA BR BKN020CB BKN100 TX12/2508Z
TN03/2501Z 
     TEMPO 2418/2504 0300 FG VV002 
     FM250400 04003MPS 3100 BR FU SCT030CB BKN100 
     TEMPO 2512/2518 1200
       
UACC 242200Z 06002MPS 1200 R04/P2000 BR OVC002 00/00 Q1022 R04/15//65 NOSIG RMK QBB070 QFE735/0980
TAF UACC 241700Z 2418/2518 VRB02MPS 0600 FG VV002 TX04/2510Z TNM01/2501Z 
     TEMPO 2418/2506 0200 -FZDZ FZFG VV001 
     BECMG 2506/2507 3100 BR FEW004 
     FM250800 16005MPS 9999 FEW008
       
UATG 242200Z 27006MPS 5000 -SHRA BR BKN005 OVC030CB 02/02 Q1012 R32/29//60 NOSIG RMK QBB160 QFE760/1014
TAF UATG 241700Z 2418/2518 25007G12MPS 3100 -SHRA BKN011 OVC020CB TX08/2511Z
TN02/2503Z 
     TEMPO 2420/2504 BKN005 
     BECMG 2506/2508 9999 NSW
       
TAF UAAH 241100Z 2412/2421 27003MPS 6000 SCT040 SCT070 
     TEMPO 2415/2421 -SHRA SCT040CB BKN070
       
UAKK 242200Z 00000MPS 0250 R23/0700N FG VV002 01/00 Q1021 R23/1///65 TEMPO 0200 FG VV001 RMK QBB070 QFE719/0959
TAF UAKK 241700Z 2418/2518 VRB02MPS 0600 FG VV002 TX03/2510Z TNM01/2423Z 
     TEMPO 2418/2420 0300 FG VV001 
     TEMPO 2420/2504 0300 FZFG VV001 
     BECMG 2506/2508 5000 BR BKN005 BKN011
       
UAUU 242200Z 15004MPS CAVOK M01/M03 Q1021 R15/CLRD60 NOSIG RMK QFE749/0999
TAF UAUU 242000Z 2421/2506 16003G08MPS 6000 SCT011 
     TEMPO 2421/2504 3100 BR BKN011 
     BECMG 2504/2505 16005G10MPS
       
TAF UASS 241100Z 2412/2421 28006MPS 9999 SCT040
       
UAII 242200Z 11002MPS 4400 BR NSC 06/05 Q1018 R10/0///70 NOSIG RMK QFE728/0971
TAF UAII 241700Z 2418/2518 07005MPS 3000 BR SCT040 BKN100 TX20/2509Z TN03/2501Z 
     TEMPO 2418/2503 12003MPS 0500 FG VV002 
     TEMPO 2503/2506 12003MPS 5000 FU SCT050 OVC100 
     TEMPO 2506/2515 32005MPS 8000 NSW BKN050
       
UARR 242200Z 23007MPS 6000 -SHRA BR BKN003 OVC020CB 01/01 Q1004 R04/720360 TEMPO 0500 SHRA FG OVC002 RMK QBB100 QFE749/0999
TAF COR UARR 242003Z 2421/2506 15005MPS 3100 -SHRA BR BKN011 BKN020CB 
     TEMPO 2421/2423 1000 BKN003 
     FM242300 22009G14MPS 3100 -SHSN BR BKN011 BKN020CB 
     TEMPO 2423/2504 0400 -FZRA SHSN FZFG VV002
       
UASK 242200Z 00000MPS 9999 SCT230 M05/M06 Q1022 R30/090060 NOSIG RMK QFE741/0988
TAF UASK 242001Z 2421/2506 VRB01MPS 3000 BR SCT030 BKN100 
     TEMPO 2421/2503 0200 -SN FZFG VV002
       
UAKD 241700Z 04004MPS 0100 R04/0350 FZFG VV001 M01/M02 Q1021 R04/810060 NOSIG RMK QBB050 QFE732/0976
TAF UAKD 241700Z 2418/2503 05005MPS 0600 FZFG VV002 
     TEMPO 2418/2424 VRB02MPS 0200 FZFG VV001 
     TEMPO 2500/2503 VRB02MPS 0200 FZFG VV001